Rola — J8Y3743 — position and weather

sailwx.info

Track history (hours):
 
Tides and Currents Weather Stations Pressure Air Temp Water Temp Dewpoint Dewpoint Depression Visibility Wind Speed Wind Dir Waves Ship Positions

Rola

Last reported at 2015-Aug-30 14:19 UTC. Time now 2015-Sep-01 08:01 UTC.
Position N 43°31' E 006°57'.

Length 47 m; draft 3.2 m.

Type: Pleasure craft. MMSI: 375275000.

Date/timePositionNaut miles runAvg speedWind from/ knotsBaromVisibWave heightAir tempDewpointWater temp
2015-Aug-30 14:19N 43°31' E 006°57'1 0.3
2015-Aug-30 12:05N 43°31' E 006°57'5 9.9
2015-Aug-30 11:33N 43°26' E 006°54'1414.4
2015-Aug-30 10:33N 43°16' E 006°39'0 0.0
2015-Aug-30 09:16N 43°16' E 006°39'2 2.4
2015-Aug-30 08:29N 43°16' E 006°37'0 0.0
2015-Aug-30 07:29N 43°16' E 006°37'0 0.0
2015-Aug-30 06:33N 43°16' E 006°37'0 0.0
2015-Aug-30 02:28N 43°16' E 006°37'0 0.0
2015-Aug-30 01:23N 43°16' E 006°37'0 0.0
2015-Aug-30 00:30N 43°16' E 006°37'0 0.0
2015-Aug-29 23:22N 43°16' E 006°37'0 0.0
2015-Aug-29 21:24N 43°16' E 006°37'0 0.0
2015-Aug-29 20:12N 43°16' E 006°37'0 0.0
2015-Aug-29 19:28N 43°16' E 006°37'1 0.8
2015-Aug-29 18:33N 43°16' E 006°36'0 0.2
2015-Aug-29 17:22N 43°17' E 006°35'5 5.7
2015-Aug-29 16:33N 43°18' E 006°42'8 7.9
2015-Aug-29 15:33N 43°10' E 006°38'0 0.0
2015-Aug-29 14:30N 43°10' E 006°38'0 0.0
2015-Aug-29 13:33N 43°10' E 006°38'0 0.0
2015-Aug-29 12:31N 43°10' E 006°38'0 0.0
2015-Aug-29 11:33N 43°10' E 006°38'0 0.0
2015-Aug-29 10:33N 43°10' E 006°38'0 0.0
2015-Aug-29 09:23N 43°10' E 006°38'3 1.2
2015-Aug-29 06:34N 43°11' E 006°43'1514.6
2015-Aug-29 05:33N 43°09' E 007°02'  
2015-Aug-21 06:24N 42°45' E 009°11'8 7.8
2015-Aug-21 05:21N 42°52' E 009°04'11 6.0
2015-Aug-21 03:33N 42°53' E 008°50'7812.9
2015-Aug-20 21:31N 43°27' E 007°14'13 3.2
2015-Aug-20 17:30N 43°31' E 006°57'  
Track history (hours):
 
Tides and Currents Weather Stations Pressure Air Temp Water Temp Dewpoint Dewpoint Depression Visibility Wind Speed Wind Dir Waves Ship Positions

Rola

Last reported at 2015-Aug-30 14:19 UTC. Time now 2015-Sep-01 08:01 UTC.
Position N 43°31' E 006°57'.

Length 47 m; draft 3.2 m.

Type: Pleasure craft. MMSI: 375275000.

Date/timePositionNaut miles runAvg speedWind from/ knotsBaromVisibWave heightAir tempDewpointWater temp
2015-Aug-30 14:19N 43°31' E 006°57'1 0.3
2015-Aug-30 12:05N 43°31' E 006°57'5 9.9
2015-Aug-30 11:33N 43°26' E 006°54'1414.4
2015-Aug-30 10:33N 43°16' E 006°39'0 0.0
2015-Aug-30 09:16N 43°16' E 006°39'2 2.4
2015-Aug-30 08:29N 43°16' E 006°37'0 0.0
2015-Aug-30 07:29N 43°16' E 006°37'0 0.0
2015-Aug-30 06:33N 43°16' E 006°37'0 0.0
2015-Aug-30 02:28N 43°16' E 006°37'0 0.0
2015-Aug-30 01:23N 43°16' E 006°37'0 0.0
2015-Aug-30 00:30N 43°16' E 006°37'0 0.0
2015-Aug-29 23:22N 43°16' E 006°37'0 0.0
2015-Aug-29 21:24N 43°16' E 006°37'0 0.0
2015-Aug-29 20:12N 43°16' E 006°37'0 0.0
2015-Aug-29 19:28N 43°16' E 006°37'1 0.8
2015-Aug-29 18:33N 43°16' E 006°36'0 0.2
2015-Aug-29 17:22N 43°17' E 006°35'5 5.7
2015-Aug-29 16:33N 43°18' E 006°42'8 7.9
2015-Aug-29 15:33N 43°10' E 006°38'0 0.0
2015-Aug-29 14:30N 43°10' E 006°38'0 0.0
2015-Aug-29 13:33N 43°10' E 006°38'0 0.0
2015-Aug-29 12:31N 43°10' E 006°38'0 0.0
2015-Aug-29 11:33N 43°10' E 006°38'0 0.0
2015-Aug-29 10:33N 43°10' E 006°38'0 0.0
2015-Aug-29 09:23N 43°10' E 006°38'3 1.2
2015-Aug-29 06:34N 43°11' E 006°43'1514.6
2015-Aug-29 05:33N 43°09' E 007°02'  
2015-Aug-21 06:24N 42°45' E 009°11'8 7.8
2015-Aug-21 05:21N 42°52' E 009°04'11 6.0
2015-Aug-21 03:33N 42°53' E 008°50'7812.9
2015-Aug-20 21:31N 43°27' E 007°14'13 3.2
2015-Aug-20 17:30N 43°31' E 006°57'  

Dump ship's entire track history